F/V Carmalia — FMFK — position and weather

sailwx.info

Track history (hours):
 
Tides and Currents Weather Stations Pressure Air Temp Water Temp Dewpoint Dewpoint Depression Visibility Wind Speed Wind Dir Waves Ship Positions

F/V Carmalia

Last reported at 2018-Jun-18 10:44 UTC. Time now 2018-Jun-18 11:38 UTC.
Position N 47°44' W 003°22'.

Length 17 m.

Type: Fishing. MMSI: 228222900.

Date/timePositionNaut miles runAvg speedWind from/ knotsBaromVisibWave heightAir tempDewpointWater temp
2018-Jun-18 10:44N 47°44' W 003°22'0 0.0
2018-Jun-18 10:29N 47°44' W 003°22'0 0.0
2018-Jun-18 10:00N 47°44' W 003°22'0 0.0
2018-Jun-18 09:30N 47°44' W 003°22'0 0.1
2018-Jun-18 09:00N 47°44' W 003°22'0 0.0
2018-Jun-18 08:30N 47°44' W 003°22'0 0.0
2018-Jun-18 08:00N 47°44' W 003°22'0 0.0
2018-Jun-18 07:30N 47°44' W 003°22'0 0.0
2018-Jun-18 07:00N 47°44' W 003°22'0 0.0
2018-Jun-18 06:30N 47°44' W 003°22'0 0.0
2018-Jun-18 06:00N 47°44' W 003°22'0 0.2
2018-Jun-18 05:30N 47°44' W 003°22'0 0.0
2018-Jun-18 05:00N 47°44' W 003°22'2 4.6
2018-Jun-18 04:30N 47°42' W 003°23'5 9.5
2018-Jun-18 04:00N 47°40' W 003°30'3 5.5
2018-Jun-18 03:30N 47°39' W 003°34'2 4.2
2018-Jun-18 03:00N 47°38' W 003°36'3 5.0
2018-Jun-18 02:30N 47°37' W 003°39'3 6.3
2018-Jun-18 02:00N 47°35' W 003°43'3 6.3
2018-Jun-18 01:30N 47°33' W 003°47'3 6.3
2018-Jun-18 01:00N 47°32' W 003°51'4 6.3
2018-Jun-18 00:26N 47°30' W 003°56'  
2018-Jun-15 11:29N 47°38' W 003°38'4 9.4
2018-Jun-15 11:00N 47°39' W 003°32'5 9.5
2018-Jun-15 10:30N 47°41' W 003°25'4 7.7
2018-Jun-15 10:00N 47°44' W 003°22'0 0.0
2018-Jun-15 09:30N 47°44' W 003°22'0 0.0
2018-Jun-15 08:59N 47°44' W 003°22'0 0.0
2018-Jun-15 08:30N 47°44' W 003°22'0 0.2
2018-Jun-15 08:00N 47°44' W 003°22'0 0.0
2018-Jun-15 07:30N 47°44' W 003°22'0 0.0
2018-Jun-15 07:00N 47°44' W 003°22'0 0.0
2018-Jun-15 06:30N 47°44' W 003°22'3 5.9
2018-Jun-15 06:00N 47°41' W 003°24'5 9.9
2018-Jun-15 05:30N 47°40' W 003°31'5 9.6
2018-Jun-15 05:00N 47°40' W 003°38'5 9.5
2018-Jun-15 04:30N 47°39' W 003°45'5 9.5
2018-Jun-15 04:00N 47°38' W 003°52'  
2018-Jun-11 22:21N 47°32' W 005°08'59 9.3
2018-Jun-11 16:04N 47°39' W 003°42'1 9.6
2018-Jun-11 15:59N 47°39' W 003°41'4 9.5
2018-Jun-11 15:30N 47°40' W 003°34'4 8.9
2018-Jun-11 15:00N 47°40' W 003°28'4 7.5
2018-Jun-11 14:30N 47°42' W 003°23'2 4.0
2018-Jun-11 14:00N 47°44' W 003°22'0 0.0
2018-Jun-11 13:30N 47°44' W 003°22'0 0.0
2018-Jun-11 13:00N 47°44' W 003°22'0 0.0
2018-Jun-11 12:30N 47°44' W 003°22'0 0.0
2018-Jun-11 12:00N 47°44' W 003°22'0 0.0
2018-Jun-11 11:30N 47°44' W 003°22'0 0.0
2018-Jun-11 11:00N 47°44' W 003°22'0 0.0
2018-Jun-11 10:30N 47°44' W 003°22'0 0.0
2018-Jun-11 10:00N 47°44' W 003°22'0 0.0
2018-Jun-11 09:30N 47°44' W 003°22'0 0.0
2018-Jun-11 09:00N 47°44' W 003°22'0 0.1
2018-Jun-11 08:30N 47°44' W 003°22'0 0.0
2018-Jun-11 08:00N 47°44' W 003°22'0 0.0
2018-Jun-11 07:30N 47°44' W 003°22'0 0.0
2018-Jun-11 07:00N 47°44' W 003°22'0 0.0
2018-Jun-09 08:25N 47°44' W 003°22'  
Track history (hours):
 
Tides and Currents Weather Stations Pressure Air Temp Water Temp Dewpoint Dewpoint Depression Visibility Wind Speed Wind Dir Waves Ship Positions

F/V Carmalia

Last reported at 2018-Jun-18 10:44 UTC. Time now 2018-Jun-18 11:38 UTC.
Position N 47°44' W 003°22'.

Length 17 m.

Type: Fishing. MMSI: 228222900.

Date/timePositionNaut miles runAvg speedWind from/ knotsBaromVisibWave heightAir tempDewpointWater temp
2018-Jun-18 10:44N 47°44' W 003°22'0 0.0
2018-Jun-18 10:29N 47°44' W 003°22'0 0.0
2018-Jun-18 10:00N 47°44' W 003°22'0 0.0
2018-Jun-18 09:30N 47°44' W 003°22'0 0.1
2018-Jun-18 09:00N 47°44' W 003°22'0 0.0
2018-Jun-18 08:30N 47°44' W 003°22'0 0.0
2018-Jun-18 08:00N 47°44' W 003°22'0 0.0
2018-Jun-18 07:30N 47°44' W 003°22'0 0.0
2018-Jun-18 07:00N 47°44' W 003°22'0 0.0
2018-Jun-18 06:30N 47°44' W 003°22'0 0.0
2018-Jun-18 06:00N 47°44' W 003°22'0 0.2
2018-Jun-18 05:30N 47°44' W 003°22'0 0.0
2018-Jun-18 05:00N 47°44' W 003°22'2 4.6
2018-Jun-18 04:30N 47°42' W 003°23'5 9.5
2018-Jun-18 04:00N 47°40' W 003°30'3 5.5
2018-Jun-18 03:30N 47°39' W 003°34'2 4.2
2018-Jun-18 03:00N 47°38' W 003°36'3 5.0
2018-Jun-18 02:30N 47°37' W 003°39'3 6.3
2018-Jun-18 02:00N 47°35' W 003°43'3 6.3
2018-Jun-18 01:30N 47°33' W 003°47'3 6.3
2018-Jun-18 01:00N 47°32' W 003°51'4 6.3
2018-Jun-18 00:26N 47°30' W 003°56'  
2018-Jun-15 11:29N 47°38' W 003°38'4 9.4
2018-Jun-15 11:00N 47°39' W 003°32'5 9.5
2018-Jun-15 10:30N 47°41' W 003°25'4 7.7
2018-Jun-15 10:00N 47°44' W 003°22'0 0.0
2018-Jun-15 09:30N 47°44' W 003°22'0 0.0
2018-Jun-15 08:59N 47°44' W 003°22'0 0.0
2018-Jun-15 08:30N 47°44' W 003°22'0 0.2
2018-Jun-15 08:00N 47°44' W 003°22'0 0.0
2018-Jun-15 07:30N 47°44' W 003°22'0 0.0
2018-Jun-15 07:00N 47°44' W 003°22'0 0.0
2018-Jun-15 06:30N 47°44' W 003°22'3 5.9
2018-Jun-15 06:00N 47°41' W 003°24'5 9.9
2018-Jun-15 05:30N 47°40' W 003°31'5 9.6
2018-Jun-15 05:00N 47°40' W 003°38'5 9.5
2018-Jun-15 04:30N 47°39' W 003°45'5 9.5
2018-Jun-15 04:00N 47°38' W 003°52'  
2018-Jun-11 22:21N 47°32' W 005°08'59 9.3
2018-Jun-11 16:04N 47°39' W 003°42'1 9.6
2018-Jun-11 15:59N 47°39' W 003°41'4 9.5
2018-Jun-11 15:30N 47°40' W 003°34'4 8.9
2018-Jun-11 15:00N 47°40' W 003°28'4 7.5
2018-Jun-11 14:30N 47°42' W 003°23'2 4.0
2018-Jun-11 14:00N 47°44' W 003°22'0 0.0
2018-Jun-11 13:30N 47°44' W 003°22'0 0.0
2018-Jun-11 13:00N 47°44' W 003°22'0 0.0
2018-Jun-11 12:30N 47°44' W 003°22'0 0.0
2018-Jun-11 12:00N 47°44' W 003°22'0 0.0
2018-Jun-11 11:30N 47°44' W 003°22'0 0.0
2018-Jun-11 11:00N 47°44' W 003°22'0 0.0
2018-Jun-11 10:30N 47°44' W 003°22'0 0.0
2018-Jun-11 10:00N 47°44' W 003°22'0 0.0
2018-Jun-11 09:30N 47°44' W 003°22'0 0.0
2018-Jun-11 09:00N 47°44' W 003°22'0 0.1
2018-Jun-11 08:30N 47°44' W 003°22'0 0.0
2018-Jun-11 08:00N 47°44' W 003°22'0 0.0
2018-Jun-11 07:30N 47°44' W 003°22'0 0.0
2018-Jun-11 07:00N 47°44' W 003°22'0 0.0
2018-Jun-09 08:25N 47°44' W 003°22'  

Dump ship's entire track history